Aérodrome :
LOGIN :

S'inscrire | Disclaimer

   EN    FR    IT 

 










Légende :    VFR   VFR Marginal   IFR   IFR Intensif   IFR Très Intensif
Visi : 
Plafond : 
>= 8 km
>= 3000ft
5 à 8 km
1000 à 3000 ft
1500m à 5 km
500 à 1000 ft
800 à 1500m
200 à 500 ft
< 800m
< 200 ft
Symboles :   Orages  Brouillard  Fortes neiges  Fortes précipitations  Vent > 20 kt
SIGMETs :   Divers  Orages  Givrage  Turbulence  Onde Orograph.  Cendres Volcan.







- Altitude de l'aérodrome : 37 ft
- Code IATA : OLB


LIEO - Olbia Costa Smeralda

DERNIER METAR :
  • 241520Z 06007KT 030V110 CAVOK 30/15 Q1017

METARs EXPIRÉS :
  • 241450Z 06009KT CAVOK 30/13 Q1017
  • 241420Z 06010KT CAVOK 30/13 Q1017
  • 241350Z 05010KT CAVOK 30/14 Q1017
  • 241320Z 06010KT CAVOK 31/14 Q1017
  • 241250Z 05011KT 020V080 CAVOK 30/15 Q1017

TAF TAF LIEO
Valide du 24 à 12h jusqu'au 25 à 12h UTC


241100Z 2412/2512 06012KT CAVOK
BECMG 2418/2420 VRB05KT
BECMG 2508/2510 04010KT
Pas de NOTAMs connus pour ce terrain.



MET'MAP, la Météo Aéronautique d'un coup d'oeil ! - Copyright ORBIFLY Décembre 2007 - Disclaimer

ORBIFLY MET'MAP TEAM :

Programmation & Développement : Alexandra Zaïnal
Conception & Développement : Baudouin d'Aumeries
Co-Programmation & Développement : Marc-Olivier Méhu
Soutien technique & logistique : Manuel Goepfert

Contact : metmap@orbifly.com




SOURCES & CREDITS :

   NOAA